Time;durP1;ratioP1;P1;durP2;ratioP2;P2;SDS_P1;SDS_P2;PMS_P1;PMS_P2;Temp;Humidity;BMP_temperature;BMP_pressure;BME280_temperature;BME280_humidity;BME280_pressure;Samples;Min_cycle;Max_cycle;Signal;HPM_P1;HPM_P2
2023/10/20 00:01:34;;;;;;;4.47;2.50;;;;;;;13.37;74.61;90380.09;2045422;70;20175;-72
2023/10/20 00:04:03;;;;;;;4.82;2.55;;;;;;;13.15;76.99;90397.44;2044858;70;20146;-72
2023/10/20 00:06:29;;;;;;;5.10;2.65;;;;;;;13.13;76.78;90414.34;2045160;70;20497;-73
2023/10/20 00:08:55;;;;;;;5.40;2.60;;;;;;;12.94;78.12;90396.41;2045435;70;20189;-73
2023/10/20 00:11:21;;;;;;;3.30;2.58;;;;;;;13.01;77.35;90396.50;2045586;70;20155;-72
2023/10/20 00:13:46;;;;;;;4.47;2.55;;;;;;;13.16;76.04;90401.69;2045035;70;20154;-73
2023/10/20 00:16:14;;;;;;;4.57;2.45;;;;;;;12.71;79.22;90397.47;2045626;70;20179;-73
2023/10/20 00:18:39;;;;;;;5.95;2.47;;;;;;;13.06;77.57;90398.00;2045069;70;20200;-73
2023/10/20 00:21:05;;;;;;;4.43;2.22;;;;;;;13.09;76.94;90400.16;2042139;70;20205;-75
2023/10/20 00:23:32;;;;;;;4.55;2.45;;;;;;;13.01;77.78;90380.28;2045374;70;20192;-74
2023/10/20 00:25:58;;;;;;;3.97;2.22;;;;;;;13.11;77.67;90383.25;2045461;70;20691;-72
2023/10/20 00:28:27;;;;;;;5.97;2.40;;;;;;;13.18;76.71;90373.47;2047270;70;20143;-72
2023/10/20 00:30:54;;;;;;;4.57;2.15;;;;;;;13.18;76.80;90350.16;2047580;70;20143;-72
2023/10/20 00:33:20;;;;;;;3.70;2.00;;;;;;;13.26;76.38;90350.28;2045319;70;20198;-73
2023/10/20 00:35:45;;;;;;;3.80;2.17;;;;;;;13.06;76.59;90353.53;2045197;70;20229;-72
2023/10/20 00:38:11;;;;;;;5.40;2.42;;;;;;;12.93;77.85;90338.53;2047332;70;20158;-72
2023/10/20 00:40:45;;;;;;;5.18;2.40;;;;;;;13.16;76.31;90353.66;2044895;70;20163;-72
2023/10/20 00:43:11;;;;;;;5.05;2.30;;;;;;;13.13;76.38;90326.06;2047205;70;20161;-72
2023/10/20 00:45:40;;;;;;;5.45;2.00;;;;;;;13.25;75.77;90317.09;2045203;70;20143;-72
2023/10/20 00:48:11;;;;;;;3.88;2.40;;;;;;;12.78;78.08;90322.75;2047254;70;20168;-73
2023/10/20 00:50:38;;;;;;;7.20;2.20;;;;;;;12.87;76.24;90320.78;2044626;70;20159;-73
2023/10/20 00:53:06;;;;;;;8.20;2.30;;;;;;;12.85;78.96;90310.16;2047340;70;20132;-73
2023/10/20 00:55:33;;;;;;;6.00;2.25;;;;;;;13.07;77.37;90284.34;2044580;70;20566;-73
2023/10/20 00:57:59;;;;;;;3.50;2.20;;;;;;;13.06;76.62;90290.69;2047190;70;20154;-72
2023/10/20 01:00:26;;;;;;;5.05;2.28;;;;;;;12.82;78.83;90280.47;2045466;70;20523;-73
2023/10/20 01:02:53;;;;;;;8.25;2.50;;;;;;;13.06;77.45;90296.34;2047492;70;20598;-73
2023/10/20 01:05:22;;;;;;;3.90;2.00;;;;;;;13.15;76.42;90278.09;2045681;70;20154;-73
2023/10/20 01:07:48;;;;;;;4.28;2.03;;;;;;;12.89;78.42;90289.75;2045254;70;20158;-73
2023/10/20 01:10:15;;;;;;;4.07;2.10;;;;;;;12.76;78.76;90285.34;2044863;70;20166;-72
2023/10/20 01:12:45;;;;;;;3.55;2.00;;;;;;;12.99;77.63;90284.25;2044878;70;20142;-73
2023/10/20 01:15:14;;;;;;;4.72;2.20;;;;;;;12.93;78.31;90267.22;2045095;70;20131;-72
2023/10/20 01:17:41;;;;;;;5.03;1.95;;;;;;;13.06;77.01;90260.34;2045241;70;20679;-74
2023/10/20 01:20:12;;;;;;;5.10;1.90;;;;;;;13.08;76.05;90257.53;2047588;70;20178;-73
2023/10/20 01:22:41;;;;;;;4.50;2.03;;;;;;;12.97;77.18;90258.81;2047508;70;20142;-74
2023/10/20 01:25:12;;;;;;;4.15;1.90;;;;;;;13.04;77.43;90268.06;2044788;70;20519;-74
2023/10/20 01:27:39;;;;;;;2.35;1.77;;;;;;;13.13;76.92;90258.28;2044678;70;20145;-73
2023/10/20 01:30:06;;;;;;;3.63;1.88;;;;;;;13.08;77.45;90237.75;2045147;70;20233;-72
2023/10/20 01:32:33;;;;;;;5.25;1.63;;;;;;;13.09;76.80;90238.47;2045304;70;20166;-73
2023/10/20 01:35:03;;;;;;;2.47;1.60;;;;;;;13.01;77.83;90221.41;2047267;70;20151;-72
2023/10/20 01:37:29;;;;;;;3.42;2.03;;;;;;;13.10;76.81;90226.50;2044486;70;20147;-72
2023/10/20 01:39:56;;;;;;;2.60;1.67;;;;;;;13.17;76.46;90222.34;2044488;70;20155;-73
2023/10/20 01:42:22;;;;;;;8.73;1.73;;;;;;;13.19;75.71;90211.06;2049750;70;20163;-74
2023/10/20 01:44:50;;;;;;;2.35;1.45;;;;;;;12.95;76.75;90222.06;2047631;70;20146;-72
2023/10/20 01:47:16;;;;;;;2.95;1.63;;;;;;;12.98;76.93;90215.75;2047719;70;20538;-71
2023/10/20 01:49:41;;;;;;;3.17;1.55;;;;;;;12.96;77.29;90192.44;2047673;70;20161;-72
2023/10/20 01:52:07;;;;;;;3.92;1.50;;;;;;;13.01;77.57;90210.84;2047773;70;20610;-72
2023/10/20 01:54:33;;;;;;;3.30;1.40;;;;;;;12.98;77.77;90217.88;2048442;70;20678;-71
2023/10/20 01:56:59;;;;;;;4.55;1.55;;;;;;;13.15;76.08;90224.44;2049034;70;20181;-72
2023/10/20 01:59:25;;;;;;;4.57;1.80;;;;;;;12.72;79.39;90226.72;2050906;70;20177;-71
2023/10/20 02:01:50;;;;;;;3.63;1.50;;;;;;;13.02;76.92;90208.75;2048336;70;20155;-71
2023/10/20 02:04:17;;;;;;;2.83;1.67;;;;;;;13.05;77.12;90193.94;2048611;70;20515;-73
2023/10/20 02:06:43;;;;;;;6.38;1.85;;;;;;;13.03;76.82;90187.56;2047927;70;20230;-72
2023/10/20 02:09:09;;;;;;;3.20;1.52;;;;;;;13.05;77.28;90190.41;2048204;70;20734;-72
2023/10/20 02:11:36;;;;;;;4.20;1.83;;;;;;;12.89;77.64;90190.94;2048446;70;20166;-73
2023/10/20 02:14:03;;;;;;;4.28;1.60;;;;;;;12.72;78.09;90164.63;2048505;70;20579;-72
2023/10/20 02:16:30;;;;;;;1.85;1.40;;;;;;;12.96;77.94;90164.19;2048373;70;20154;-72
2023/10/20 02:19:00;;;;;;;2.30;1.02;;;;;;;12.90;78.29;90144.38;2048456;70;20145;-73
2023/10/20 02:21:27;;;;;;;4.35;2.05;;;;;;;12.71;77.71;90118.75;2048946;70;20139;-72
2023/10/20 02:23:53;;;;;;;5.63;2.25;;;;;;;12.44;80.45;90103.63;2050948;70;20157;-73
2023/10/20 02:26:19;;;;;;;4.07;2.25;;;;;;;12.78;78.76;90108.22;2048865;70;20151;-73
2023/10/20 02:28:45;;;;;;;3.55;1.85;;;;;;;12.83;78.26;90109.72;2048108;70;20756;-73
2023/10/20 02:31:17;;;;;;;3.67;2.10;;;;;;;12.93;77.43;90115.47;2049207;70;20150;-72
2023/10/20 02:33:45;;;;;;;5.53;1.70;;;;;;;12.91;78.01;90115.44;2049209;70;20213;-75
2023/10/20 02:36:19;;;;;;;4.00;1.55;;;;;;;12.97;78.15;90097.88;2048292;70;20131;-73
2023/10/20 02:38:46;;;;;;;1.85;1.23;;;;;;;12.96;77.66;90071.72;2051411;70;20163;-74
2023/10/20 02:41:14;;;;;;;4.85;1.83;;;;;;;12.90;77.48;90085.78;2048958;70;20145;-71
2023/10/20 02:43:40;;;;;;;3.38;1.90;;;;;;;12.89;77.92;90095.66;2048604;70;20139;-72
2023/10/20 02:46:07;;;;;;;3.92;1.90;;;;;;;12.91;77.24;90070.25;2048378;70;20698;-73
2023/10/20 02:48:34;;;;;;;3.20;1.65;;;;;;;13.03;77.36;90072.50;2048677;70;20178;-73
2023/10/20 02:51:15;;;;;;;1.85;1.60;;;;;;;12.96;77.33;90093.59;2049110;70;20282;-73
2023/10/20 02:53:41;;;;;;;2.38;1.55;;;;;;;12.58;78.66;90068.50;2049230;70;20178;-73
2023/10/20 02:56:14;;;;;;;2.67;1.60;;;;;;;12.76;78.23;90068.69;2048571;70;20139;-73
2023/10/20 02:58:44;;;;;;;5.45;1.60;;;;;;;12.83;78.09;90078.66;2048167;70;20153;-71
2023/10/20 03:01:12;;;;;;;2.75;1.50;;;;;;;12.90;77.87;90059.66;2045825;70;20226;-73
2023/10/20 03:03:37;;;;;;;5.65;1.90;;;;;;;12.91;77.28;90053.31;2045547;70;20241;-73
2023/10/20 03:06:04;;;;;;;5.95;2.00;;;;;;;12.65;78.38;90059.41;2045077;70;20178;-72
2023/10/20 03:08:31;;;;;;;1.63;1.20;;;;;;;12.79;78.71;90036.28;2045687;70;20151;-72
2023/10/20 03:10:59;;;;;;;3.92;2.10;;;;;;;12.83;76.90;90041.97;2045095;70;20143;-73
2023/10/20 03:13:27;;;;;;;6.78;1.73;;;;;;;12.89;77.21;90038.50;2047865;70;20242;-73
2023/10/20 03:15:53;;;;;;;3.05;1.67;;;;;;;12.69;78.96;90024.88;2045212;70;20159;-74
2023/10/20 03:18:21;;;;;;;1.92;1.17;;;;;;;12.87;77.96;90027.88;2045746;70;20146;-74
2023/10/20 03:20:50;;;;;;;3.00;1.30;;;;;;;12.59;79.24;90019.13;2045167;70;20150;-74
2023/10/20 03:23:18;;;;;;;3.55;1.40;;;;;;;12.82;77.22;90005.94;2045312;70;20259;-74
2023/10/20 03:25:44;;;;;;;3.00;1.52;;;;;;;12.37;80.61;90013.94;2045188;70;20162;-74
2023/10/20 03:28:09;;;;;;;3.25;1.70;;;;;;;12.59;79.77;89959.88;2045361;70;20150;-73
2023/10/20 03:30:46;;;;;;;3.33;1.85;;;;;;;12.76;78.83;89963.56;2045785;70;20154;-74
2023/10/20 03:33:13;;;;;;;2.00;1.50;;;;;;;12.61;79.15;89957.78;2045304;70;20150;-73
2023/10/20 03:35:39;;;;;;;4.63;1.95;;;;;;;12.46;80.35;89951.31;2045856;70;20151;-73
2023/10/20 03:38:07;;;;;;;2.25;1.50;;;;;;;12.53;79.92;89954.19;2047928;70;20233;-73
2023/10/20 03:40:40;;;;;;;3.65;1.83;;;;;;;12.72;77.88;89955.75;2045177;70;20146;-75
2023/10/20 03:43:08;;;;;;;5.30;1.90;;;;;;;12.37;79.87;89972.38;2047879;70;20147;-72
2023/10/20 03:45:51;;;;;;;2.58;1.67;;;;;;;12.53;79.53;89962.66;2045436;70;20169;-73
2023/10/20 03:48:23;;;;;;;4.75;1.80;;;;;;;12.33;79.63;89963.16;2044984;70;20159;-73
2023/10/20 03:50:51;;;;;;;;;;;;;;;12.38;80.21;89964.63;2045723;70;20153;-74
2023/10/20 03:53:27;;;;;;;2.35;1.50;;;;;;;12.58;77.99;89978.22;2045780;70;20134;-72
2023/10/20 03:56:07;;;;;;;2.90;1.88;;;;;;;12.68;77.93;89952.91;2045584;70;20603;-72
2023/10/20 03:58:36;;;;;;;1.95;1.30;;;;;;;12.62;75.35;89959.19;2047800;70;20189;-72
2023/10/20 04:01:02;;;;;;;2.70;1.42;;;;;;;12.70;78.39;89950.13;2045739;70;20548;-74
2023/10/20 04:03:31;;;;;;;2.45;1.20;;;;;;;12.68;78.11;89950.78;2045674;70;20143;-72
2023/10/20 04:05:56;;;;;;;4.43;1.90;;;;;;;12.12;80.15;89945.28;2045171;70;20153;-74
2023/10/20 04:08:23;;;;;;;3.58;1.80;;;;;;;12.32;79.92;89945.50;2045227;70;20274;-73
2023/10/20 04:10:56;;;;;;;2.92;1.70;;;;;;;12.56;78.81;89944.34;2045647;70;20155;-73
2023/10/20 04:13:23;;;;;;;3.60;1.60;;;;;;;12.51;78.41;89934.38;2045637;70;20543;-73
2023/10/20 04:15:55;;;;;;;4.43;2.20;;;;;;;12.43;79.24;89949.84;2045727;70;20235;-75
2023/10/20 04:18:22;;;;;;;4.88;2.20;;;;;;;12.52;78.79;89930.19;2045720;70;20147;-73
2023/10/20 04:20:48;;;;;;;3.70;1.40;;;;;;;12.57;78.91;89935.19;2045681;70;20159;-72
2023/10/20 04:23:16;;;;;;;2.10;1.30;;;;;;;12.64;78.17;89890.78;2045541;70;20299;-73
2023/10/20 04:25:55;;;;;;;6.15;2.67;;;;;;;12.43;79.02;89895.56;2045508;70;20150;-73
2023/10/20 04:28:28;;;;;;;6.88;4.30;;;;;;;12.31;80.63;89903.88;2044929;70;20155;-72
2023/10/20 04:42:00;;;;;;;4.43;3.30;;;;;;;12.78;77.40;89864.78;2046030;70;20593;-73
2023/10/20 04:44:58;;;;;;;5.30;3.55;;;;;;;12.76;77.93;89853.50;2045576;70;20154;-73
2023/10/20 05:00:36;;;;;;;14.20;6.90;;;;;;;12.51;79.33;89873.06;2045434;70;20183;-74
2023/10/20 05:06:19;;;;;;;13.50;8.45;;;;;;;12.67;79.38;89838.59;2045688;70;20222;-74
2023/10/20 05:08:17;;;;;;;14.95;7.32;;;;;;;12.79;78.32;89866.22;2044785;70;20143;-73
2023/10/20 05:10:45;;;;;;;13.13;7.90;;;;;;;12.66;78.67;89854.84;2045535;70;20158;-73
2023/10/20 05:13:14;;;;;;;12.05;7.60;;;;;;;12.79;77.21;89849.28;2044932;70;20295;-73
2023/10/20 05:15:40;;;;;;;8.80;6.18;;;;;;;12.15;80.65;89873.44;2045591;70;20167;-73
2023/10/20 05:18:12;;;;;;;9.02;5.95;;;;;;;12.11;82.13;89848.72;2044797;70;20178;-74
2023/10/20 05:20:40;;;;;;;12.73;5.60;;;;;;;12.48;80.60;89822.94;2045475;70;20523;-71
2023/10/20 05:23:07;;;;;;;11.15;4.90;;;;;;;12.52;79.23;89834.97;2044902;70;20210;-72
2023/10/20 05:25:32;;;;;;;17.52;10.32;;;;;;;12.42;80.38;89820.78;2045544;70;20542;-73
2023/10/20 05:28:02;;;;;;;15.40;9.55;;;;;;;12.55;79.49;89804.66;2045821;70;20591;-73
2023/10/20 05:30:27;;;;;;;9.77;5.90;;;;;;;12.73;78.41;89790.66;2045937;70;20151;-74
2023/10/20 05:32:54;;;;;;;7.60;4.88;;;;;;;12.68;79.42;89801.22;2046068;70;20241;-74
2023/10/20 05:35:19;;;;;;;10.35;6.57;;;;;;;12.59;79.27;89796.91;2046103;70;20230;-74
2023/10/20 05:37:45;;;;;;;13.73;6.10;;;;;;;12.82;78.76;89803.41;2046023;70;20281;-73
2023/10/20 05:40:13;;;;;;;12.82;6.80;;;;;;;12.76;77.73;89803.38;2045793;70;20142;-73
2023/10/20 05:42:42;;;;;;;9.45;5.88;;;;;;;12.68;79.79;89797.69;2045788;70;20476;-73
2023/10/20 05:45:17;;;;;;;9.32;6.22;;;;;;;12.85;78.74;89787.91;2045373;70;20147;-73
2023/10/20 05:47:43;;;;;;;7.88;4.60;;;;;;;12.85;78.09;89768.16;2046010;70;20640;-73
2023/10/20 05:50:09;;;;;;;5.70;3.28;;;;;;;13.00;78.24;89777.41;2045481;70;20689;-73
2023/10/20 05:52:35;;;;;;;7.47;3.28;;;;;;;12.87;79.24;89795.69;2045561;70;20139;-73
2023/10/20 05:55:05;;;;;;;7.80;3.20;;;;;;;12.99;77.69;89767.53;2046146;70;20163;-73
2023/10/20 05:57:30;;;;;;;7.57;2.90;;;;;;;12.95;78.24;89750.56;2045717;70;20186;-72
2023/10/20 05:59:59;;;;;;;4.30;3.20;;;;;;;12.83;78.76;89744.84;2046020;70;20150;-73
2023/10/20 06:02:25;;;;;;;7.13;3.03;;;;;;;12.92;77.58;89732.19;2045384;70;20226;-74
2023/10/20 06:04:51;;;;;;;4.88;3.13;;;;;;;12.67;79.88;89743.38;2045938;70;20268;-73
2023/10/20 06:07:16;;;;;;;5.05;3.42;;;;;;;12.76;79.19;89746.25;2048000;70;20210;-73
2023/10/20 06:09:42;;;;;;;8.90;3.17;;;;;;;12.86;79.51;89721.59;2045868;70;20614;-73
2023/10/20 06:12:10;;;;;;;3.30;2.33;;;;;;;12.97;78.40;89730.81;2045824;70;20211;-74
2023/10/20 06:14:38;;;;;;;4.82;3.08;;;;;;;12.86;79.51;89747.00;2045568;70;20539;-74
2023/10/20 06:17:04;;;;;;;5.20;2.85;;;;;;;12.94;78.80;89735.75;2045873;70;20163;-73
2023/10/20 06:19:31;;;;;;;5.85;3.08;;;;;;;12.49;80.79;89740.44;2046150;70;20161;-73
2023/10/20 06:22:00;;;;;;;5.40;3.17;;;;;;;12.95;79.11;89736.44;2046052;70;20322;-74
2023/10/20 06:24:25;;;;;;;6.15;3.40;;;;;;;12.96;78.60;89726.56;2042891;70;20250;-74
2023/10/20 06:26:51;;;;;;;4.88;2.65;;;;;;;12.97;79.31;89723.06;2046121;70;20270;-74
2023/10/20 06:29:27;;;;;;;3.95;3.20;;;;;;;13.16;77.72;89732.31;2045796;70;20154;-74
2023/10/20 06:34:51;;;;;;;4.72;3.25;;;;;;;13.32;77.20;89748.63;2041964;70;20687;-73
2023/10/20 06:40:05;;;;;;;4.80;2.50;;;;;;;13.50;76.37;89711.25;2045295;70;20142;-73
2023/10/20 06:42:31;;;;;;;2.80;1.90;;;;;;;13.40;74.55;89723.25;2045733;70;20151;-72
2023/10/20 06:44:57;;;;;;;5.90;3.72;;;;;;;13.03;79.02;89713.19;2045204;70;20218;-72
2023/10/20 06:47:22;;;;;;;13.43;8.07;;;;;;;13.33;78.50;89702.03;2045724;70;20218;-73
2023/10/20 06:49:48;;;;;;;11.60;4.07;;;;;;;13.25;78.74;89699.19;2045367;70;20595;-73
2023/10/20 06:52:19;;;;;;;5.65;4.15;;;;;;;13.54;77.41;89677.34;2045833;70;20154;-73
2023/10/20 06:54:46;;;;;;;5.10;3.20;;;;;;;13.62;76.84;89677.38;2045868;70;20154;-74
2023/10/20 06:57:13;;;;;;;8.43;3.00;;;;;;;13.69;76.69;89661.81;2045473;70;20218;-73
2023/10/20 06:59:39;;;;;;;5.63;2.40;;;;;;;13.71;76.29;89652.66;2045598;70;20151;-73
2023/10/20 07:02:05;;;;;;;4.15;2.67;;;;;;;13.78;75.38;89630.75;2045531;70;20326;-75
2023/10/20 07:04:31;;;;;;;5.32;2.53;;;;;;;13.55;77.83;89661.81;2045678;70;20612;-75
2023/10/20 07:06:58;;;;;;;11.00;5.57;;;;;;;13.52;77.57;89662.53;2045672;70;20154;-76
2023/10/20 07:09:23;;;;;;;9.82;5.40;;;;;;;13.70;76.43;89671.03;2045716;70;20143;-74
2023/10/20 07:11:49;;;;;;;9.75;5.20;;;;;;;13.70;77.66;89665.38;2045756;70;20150;-73
2023/10/20 07:14:15;;;;;;;6.82;4.40;;;;;;;13.83;76.96;89668.91;2045542;70;20222;-75
2023/10/20 07:16:42;;;;;;;6.22;3.58;;;;;;;13.82;76.72;89659.72;2045505;70;20222;-73
2023/10/20 07:19:09;;;;;;;5.95;3.30;;;;;;;13.82;76.93;89653.34;2045496;70;20143;-73
2023/10/20 07:21:35;;;;;;;7.18;4.90;;;;;;;13.95;76.27;89620.84;2045682;70;20161;-73
2023/10/20 07:24:04;;;;;;;6.65;4.28;;;;;;;13.89;75.00;89647.00;2045732;70;20622;-74
2023/10/20 07:26:30;;;;;;;9.88;6.53;;;;;;;13.52;78.75;89651.94;2045744;70;20524;-74
2023/10/20 07:28:55;;;;;;;10.15;6.10;;;;;;;14.03;76.86;89595.38;2045802;70;20190;-75
2023/10/20 07:31:21;;;;;;;11.25;5.03;;;;;;;13.63;77.80;89622.25;2045830;70;20226;-75
2023/10/20 07:33:49;;;;;;;9.55;5.75;;;;;;;13.89;77.80;89623.69;2045832;70;20191;-73
2023/10/20 07:36:15;;;;;;;5.85;3.83;;;;;;;14.10;77.57;89601.72;2045792;70;20203;-73
2023/10/20 07:38:42;;;;;;;5.72;3.15;;;;;;;14.05;75.69;89618.00;2045897;70;20178;-75
2023/10/20 07:41:11;;;;;;;5.07;3.20;;;;;;;14.12;76.53;89596.78;2045655;70;20604;-73
2023/10/20 07:43:40;;;;;;;5.65;3.30;;;;;;;14.36;75.25;89600.97;2045688;70;20550;-74
2023/10/20 07:46:06;;;;;;;12.48;3.22;;;;;;;14.19;75.25;89578.38;2045612;70;20179;-74
2023/10/20 07:48:32;;;;;;;7.28;3.50;;;;;;;14.31;75.92;89586.13;2045561;70;20519;-74
2023/10/20 07:50:59;;;;;;;4.80;3.10;;;;;;;14.33;74.91;89597.44;2045434;70;20171;-73
2023/10/20 07:53:26;;;;;;;4.75;2.42;;;;;;;14.54;74.42;89560.63;2045472;70;20162;-73
2023/10/20 07:55:52;;;;;;;3.85;2.13;;;;;;;14.60;74.50;89569.09;2045634;70;20151;-73
2023/10/20 07:58:17;;;;;;;4.88;3.35;;;;;;;14.27;75.60;89577.66;2045437;70;20230;-74
2023/10/20 08:00:43;;;;;;;7.13;3.10;;;;;;;14.67;74.55;89584.63;2045560;70;20154;-73
2023/10/20 08:03:11;;;;;;;4.63;3.25;;;;;;;14.74;73.97;89586.00;2045648;70;20143;-74
2023/10/20 08:05:37;;;;;;;7.22;3.40;;;;;;;14.83;73.82;89603.66;2045673;70;20171;-75
2023/10/20 08:08:04;;;;;;;5.35;2.90;;;;;;;14.90;75.65;89579.59;2045416;70;20201;-74
2023/10/20 08:10:31;;;;;;;2.35;1.60;;;;;;;15.03;71.30;89603.59;2045520;70;20579;-76
2023/10/20 08:12:56;;;;;;;2.70;1.70;;;;;;;15.17;71.11;89589.34;2045531;70;20182;-74
2023/10/20 08:15:26;;;;;;;3.28;2.33;;;;;;;15.27;72.46;89614.09;2045808;70;20210;-73
2023/10/20 08:17:52;;;;;;;4.50;2.67;;;;;;;15.05;72.91;89609.25;2045683;70;20151;-74
2023/10/20 08:20:18;;;;;;;6.65;2.28;;;;;;;15.15;72.01;89605.66;2045845;70;20155;-74
2023/10/20 08:22:43;;;;;;;4.32;1.90;;;;;;;15.18;72.50;89627.59;2045758;70;20137;-75
2023/10/20 08:25:09;;;;;;;3.28;2.17;;;;;;;15.05;72.97;89642.53;2045419;70;20209;-74
2023/10/20 08:27:35;;;;;;;2.85;2.25;;;;;;;15.14;72.60;89621.94;2045744;70;20170;-73
2023/10/20 08:30:02;;;;;;;3.92;1.73;;;;;;;15.29;72.61;89641.69;2046084;70;20147;-75
2023/10/20 08:32:28;;;;;;;5.90;1.90;;;;;;;15.26;72.42;89652.34;2045690;70;20182;-76
2023/10/20 08:34:54;;;;;;;4.20;1.80;;;;;;;15.36;73.09;89637.41;2045212;70;20131;-74
2023/10/20 08:37:19;;;;;;;1.98;1.40;;;;;;;15.35;75.38;89625.38;2045010;70;20599;-74
2023/10/20 08:39:45;;;;;;;4.22;1.60;;;;;;;15.44;74.17;89632.41;2045423;70;20167;-74
2023/10/20 08:42:21;;;;;;;2.65;1.70;;;;;;;15.59;73.36;89640.81;2045747;70;20582;-74
2023/10/20 08:44:49;;;;;;;5.38;3.03;;;;;;;15.65;72.88;89610.31;2048207;70;20142;-74
2023/10/20 08:47:17;;;;;;;2.63;2.00;;;;;;;15.66;72.72;89588.34;2045675;70;20209;-74
2023/10/20 08:49:43;;;;;;;6.20;3.70;;;;;;;15.71;73.23;89623.75;2045692;70;20226;-75
2023/10/20 08:52:12;;;;;;;5.78;3.20;;;;;;;15.90;73.28;89602.34;2045725;70;20295;-76
2023/10/20 08:54:38;;;;;;;2.40;1.60;;;;;;;16.01;69.92;89603.66;2045533;70;20583;-76
2023/10/20 08:57:04;;;;;;;4.20;1.80;;;;;;;16.42;68.73;89616.78;2045450;70;20598;-76
2023/10/20 08:59:31;;;;;;;3.03;1.73;;;;;;;16.89;68.15;89639.72;2045133;70;20218;-74
2023/10/20 09:01:57;;;;;;;7.22;2.60;;;;;;;17.20;68.14;89616.66;2045750;70;20622;-76
2023/10/20 09:04:24;;;;;;;4.55;1.92;;;;;;;17.19;67.18;89624.47;2045972;70;20154;-75
2023/10/20 09:06:50;;;;;;;10.43;3.17;;;;;;;17.81;67.42;89624.34;2045952;70;20186;-77
2023/10/20 09:09:17;;;;;;;4.65;1.73;;;;;;;17.93;64.84;89609.97;2048163;70;20154;-75
2023/10/20 09:11:43;;;;;;;5.43;2.97;;;;;;;17.69;65.25;89610.31;2045999;70;20238;-73
2023/10/20 09:14:12;;;;;;;4.93;2.13;;;;;;;17.61;65.50;89627.47;2045807;70;20159;-73
2023/10/20 09:16:39;;;;;;;5.22;1.52;;;;;;;17.66;64.91;89631.69;2045819;70;20610;-73
2023/10/20 09:19:05;;;;;;;6.82;1.20;;;;;;;17.75;64.20;89610.25;2045971;70;20221;-73
2023/10/20 09:21:30;;;;;;;4.80;1.40;;;;;;;18.18;63.30;89623.81;2045976;70;20230;-73
2023/10/20 09:24:04;;;;;;;5.55;1.92;;;;;;;18.67;62.86;89612.28;2046308;70;20182;-73
2023/10/20 09:26:32;;;;;;;6.93;1.90;;;;;;;19.47;63.66;89576.53;2046028;70;20151;-75
2023/10/20 09:28:58;;;;;;;6.07;1.77;;;;;;;19.16;61.50;89597.13;2045954;70;20238;-73
2023/10/20 09:31:25;;;;;;;10.85;5.80;;;;;;;19.07;60.69;89626.56;2046007;70;20290;-74
2023/10/20 09:33:52;;;;;;;6.05;2.50;;;;;;;19.05;62.57;89622.28;2045741;70;20683;-74
2023/10/20 09:36:18;;;;;;;4.03;1.55;;;;;;;18.86;61.25;89594.88;2046195;70;20234;-75
2023/10/20 09:38:52;;;;;;;3.58;1.80;;;;;;;19.05;61.48;89613.72;2045929;70;20512;-74
2023/10/20 09:41:24;;;;;;;4.00;2.13;;;;;;;19.29;61.46;89614.72;2046094;70;20213;-75
2023/10/20 09:43:54;;;;;;;6.15;2.42;;;;;;;19.47;62.06;89619.31;2046018;70;20179;-75
2023/10/20 09:46:39;;;;;;;4.32;2.75;;;;;;;19.82;58.88;89642.13;2046072;70;20214;-74
2023/10/20 09:49:14;;;;;;;3.45;1.40;;;;;;;19.67;57.51;89592.53;2045807;70;20143;-76
2023/10/20 09:51:45;;;;;;;1.30;1.10;;;;;;;19.99;54.91;89628.22;2045856;70;20145;-74
2023/10/20 09:54:13;;;;;;;1.85;1.00;;;;;;;20.09;55.54;89599.44;2045997;70;20218;-75
2023/10/20 09:56:44;;;;;;;0.85;0.30;;;;;;;20.29;52.85;89587.50;2045879;70;20178;-75
2023/10/20 09:59:20;;;;;;;3.42;0.90;;;;;;;20.10;58.24;89597.28;2045700;70;20565;-75
2023/10/20 10:01:52;;;;;;;1.52;0.50;;;;;;;20.35;52.65;89605.97;2045705;70;20274;-74
2023/10/20 10:04:36;;;;;;;0.95;0.22;;;;;;;20.84;49.76;89596.19;2045295;70;20175;-74
2023/10/20 10:07:04;;;;;;;0.38;0.20;;;;;;;20.70;51.68;89635.09;2045851;70;20139;-73
2023/10/20 10:09:38;;;;;;;0.60;0.20;;;;;;;20.84;48.88;89642.63;2045880;70;20530;-75
2023/10/20 10:12:08;;;;;;;1.17;0.28;;;;;;;21.00;47.49;89616.47;2045599;70;20202;-76
2023/10/20 10:14:34;;;;;;;2.17;0.35;;;;;;;21.12;48.24;89612.59;2045676;70;20226;-74
2023/10/20 10:17:01;;;;;;;10.27;1.13;;;;;;;21.16;47.86;89628.91;2045734;70;20163;-73
2023/10/20 10:19:27;;;;;;;1.55;0.70;;;;;;;21.63;49.35;89636.25;2045908;70;20166;-74
2023/10/20 10:22:00;;;;;;;0.30;0.20;;;;;;;21.47;47.01;89648.84;2046068;70;20155;-74
2023/10/20 10:24:26;;;;;;;6.43;0.55;;;;;;;22.21;43.13;89613.75;2045705;70;20151;-75
2023/10/20 10:27:06;;;;;;;3.47;0.20;;;;;;;22.84;43.14;89654.75;2045834;70;20143;-77
2023/10/20 10:29:56;;;;;;;7.18;0.40;;;;;;;24.21;39.33;89655.75;2048078;70;20230;-77
2023/10/20 10:32:23;;;;;;;2.55;0.20;;;;;;;25.13;38.79;89663.69;2045769;70;20187;-75
2023/10/20 10:34:53;;;;;;;6.80;0.30;;;;;;;27.28;37.38;89649.06;2045960;70;20145;-76
2023/10/20 10:37:46;;;;;;;2.10;0.30;;;;;;;27.35;35.30;89697.06;2045790;70;20269;-77
2023/10/20 10:40:14;;;;;;;1.73;0.25;;;;;;;27.85;34.16;89664.22;2045358;70;20196;-75
2023/10/20 10:42:48;;;;;;;4.95;0.20;;;;;;;27.53;34.17;89688.97;2048329;70;20146;-77
2023/10/20 10:45:36;;;;;;;1.95;0.47;;;;;;;29.09;33.29;89674.31;2048093;70;20177;-75
2023/10/20 10:48:10;;;;;;;0.43;0.10;;;;;;;27.27;33.51;89722.72;2046964;70;20253;-76
2023/10/20 10:50:44;;;;;;;0.17;0.00;;;;;;;26.44;35.79;89718.63;2046072;70;20691;-77
2023/10/20 10:53:11;;;;;;;0.35;0.10;;;;;;;25.45;36.49;89730.03;2046027;70;20147;-81
2023/10/20 10:55:37;;;;;;;2.22;0.10;;;;;;;25.51;36.09;89716.06;2046004;70;20182;-75
2023/10/20 10:58:06;;;;;;;0.90;0.03;;;;;;;24.88;37.21;89724.38;2045582;70;20186;-79
2023/10/20 11:00:33;;;;;;;1.40;0.10;;;;;;;24.47;37.16;89728.13;2045581;70;20178;-74
2023/10/20 11:03:01;;;;;;;2.75;0.08;;;;;;;24.53;38.10;89728.56;2046230;70;20143;-75
2023/10/20 11:05:28;;;;;;;1.45;0.10;;;;;;;24.40;37.15;89765.00;2047945;70;20170;-76
2023/10/20 11:08:14;;;;;;;0.35;0.00;;;;;;;24.33;37.69;89712.06;2045694;70;20139;-79
2023/10/20 11:10:45;;;;;;;4.65;0.30;;;;;;;25.41;37.31;89712.94;2047577;70;20150;-76
2023/10/20 11:13:13;;;;;;;1.65;0.10;;;;;;;25.09;36.93;89704.13;2048831;70;20250;-78
2023/10/20 11:15:40;;;;;;;0.20;0.00;;;;;;;24.30;37.15;89733.72;2048748;70;20245;-75
2023/10/20 11:18:12;;;;;;;0.17;0.00;;;;;;;23.84;38.08;89779.91;2050316;70;20150;-76
2023/10/20 11:20:44;;;;;;;0.47;0.10;;;;;;;24.14;38.90;89760.19;2048530;70;20146;-76
2023/10/20 11:23:12;;;;;;;2.25;0.20;;;;;;;24.10;38.53;89763.91;2048725;70;20126;-75
2023/10/20 11:25:40;;;;;;;2.55;0.10;;;;;;;25.26;35.74;89776.16;2048777;70;20149;-75
2023/10/20 11:28:07;;;;;;;0.52;0.10;;;;;;;25.49;35.97;89822.72;2046336;70;20194;-74
2023/10/20 11:30:37;;;;;;;1.40;0.10;;;;;;;26.89;36.29;89777.16;2047344;70;20235;-74
2023/10/20 11:33:05;;;;;;;0.03;0.00;;;;;;;28.24;33.73;89817.69;2048585;70;20179;-75
2023/10/20 11:35:31;;;;;;;0.00;0.00;;;;;;;28.97;33.33;89813.25;2048706;70;20151;-74
2023/10/20 11:37:58;;;;;;;1.15;0.00;;;;;;;29.86;31.56;89825.75;2051118;70;20147;-76
2023/10/20 11:40:28;;;;;;;0.80;0.00;;;;;;;27.69;33.88;89823.25;2050869;70;20181;-77
2023/10/20 11:42:54;;;;;;;0.47;0.10;;;;;;;27.00;34.68;89824.97;2048783;70;20173;-76
2023/10/20 11:45:23;;;;;;;0.10;0.00;;;;;;;25.26;36.14;89820.00;2048972;70;20161;-78
2023/10/20 11:47:49;;;;;;;0.00;0.00;;;;;;;25.63;35.93;89812.09;2049055;70;20170;-75
2023/10/20 11:50:15;;;;;;;0.75;0.10;;;;;;;26.53;35.36;89789.59;2048949;70;20179;-79
2023/10/20 11:52:43;;;;;;;1.55;0.20;;;;;;;26.80;35.49;89791.97;2048650;70;20317;-76
2023/10/20 11:55:10;;;;;;;2.75;0.00;;;;;;;25.80;36.20;89796.28;2048811;70;20158;-78
2023/10/20 11:57:36;;;;;;;0.13;0.10;;;;;;;28.21;34.50;89833.75;2050372;70;20154;-76
2023/10/20 12:00:07;;;;;;;3.70;0.10;;;;;;;26.27;34.75;89877.91;2048527;70;20131;-76
2023/10/20 12:02:40;;;;;;;1.38;0.00;;;;;;;25.74;36.20;89848.34;2048134;70;20253;-76
2023/10/20 12:05:07;;;;;;;1.55;0.08;;;;;;;24.75;37.70;89870.81;2048656;70;20149;-76
2023/10/20 12:07:34;;;;;;;0.00;0.00;;;;;;;23.96;38.45;89854.16;2048722;70;20568;-77
2023/10/20 12:10:01;;;;;;;5.07;0.10;;;;;;;23.90;39.21;89807.69;2048935;70;20154;-77
2023/10/20 12:12:26;;;;;;;0.10;0.10;;;;;;;23.61;39.84;89842.41;2048883;70;20174;-76